Time;durP1;ratioP1;P1;durP2;ratioP2;P2;SDS_P1;SDS_P2;PMS_P1;PMS_P2;Temp;Humidity;BMP_temperature;BMP_pressure;BME280_temperature;BME280_humidity;BME280_pressure;Samples;Min_cycle;Max_cycle;Signal;HPM_P1;HPM_P2
2023/05/06 00:00:17;;;;;;;0.50;0.30;;;11.60;99.90;;;;;;5065648;28;20266;-80
2023/05/06 00:02:44;;;;;;;1.30;1.30;;;11.50;99.90;;;;;;5060039;28;20211;-79
2023/05/06 00:05:11;;;;;;;0.50;0.40;;;11.50;99.90;;;;;;5064601;28;20300;-80
2023/05/06 00:07:37;;;;;;;0.50;0.40;;;11.60;99.90;;;;;;5070119;28;20258;-78
2023/05/06 00:10:05;;;;;;;0.50;0.40;;;11.50;99.90;;;;;;5063676;28;20218;-80
2023/05/06 00:12:32;;;;;;;0.50;0.40;;;11.40;99.90;;;;;;5066083;28;20197;-81
2023/05/06 00:15:00;;;;;;;0.50;0.40;;;11.40;99.90;;;;;;5065866;28;20317;-78
2023/05/06 00:17:27;;;;;;;0.50;0.40;;;11.30;99.90;;;;;;5070185;28;20190;-80
2023/05/06 00:19:54;;;;;;;1.60;1.50;;;11.40;99.90;;;;;;5061914;28;20310;-81
2023/05/06 00:22:21;;;;;;;9.30;3.33;;;11.40;99.90;;;;;;5065009;28;20210;-80
2023/05/06 00:24:48;;;;;;;0.70;0.68;;;11.40;99.90;;;;;;5065605;28;20226;-80
2023/05/06 00:27:15;;;;;;;0.50;0.40;;;11.40;99.90;;;;;;5065717;28;20289;-81
2023/05/06 00:29:42;;;;;;;2.70;2.60;;;11.40;99.90;;;;;;5065319;28;20214;-80
2023/05/06 00:32:10;;;;;;;1.60;1.50;;;11.40;99.90;;;;;;5056060;28;20214;-80
2023/05/06 00:34:37;;;;;;;1.35;1.27;;;11.30;99.90;;;;;;5053912;28;20648;-80
2023/05/06 00:37:04;;;;;;;1.17;1.17;;;11.30;99.90;;;;;;5062005;28;20222;-80
2023/05/06 00:39:30;;;;;;;0.93;0.93;;;11.30;99.90;;;;;;5065607;28;20395;-80
2023/05/06 00:42:00;;;;;;;0.50;0.40;;;11.30;99.90;;;;;;5073383;28;20220;-80
2023/05/06 00:44:27;;;;;;;2.90;2.80;;;11.30;99.90;;;;;;5053890;28;20272;-81
2023/05/06 00:46:55;;;;;;;0.50;0.40;;;11.40;99.90;;;;;;5069427;28;20190;-79
2023/05/06 00:49:23;;;;;;;0.50;0.40;;;11.40;99.90;;;;;;5065158;28;20213;-80
2023/05/06 00:51:51;;;;;;;0.50;0.38;;;11.40;99.90;;;;;;5064948;28;20569;-80
2023/05/06 00:54:18;;;;;;;0.50;0.40;;;11.40;99.90;;;;;;5062607;28;20577;-80
2023/05/06 00:56:45;;;;;;;0.50;0.40;;;11.30;99.90;;;;;;5053284;28;20191;-78
2023/05/06 00:59:12;;;;;;;0.50;0.40;;;11.30;99.90;;;;;;5071581;28;20317;-79
2023/05/06 01:01:39;;;;;;;0.50;0.50;;;11.30;99.90;;;;;;5066712;28;20690;-79
2023/05/06 01:04:07;;;;;;;0.50;0.40;;;11.30;99.90;;;;;;5068853;28;20657;-78
2023/05/06 01:06:44;;;;;;;1.98;1.98;;;11.30;99.90;;;;;;5059741;28;20195;-79
2023/05/06 01:09:19;;;;;;;0.50;0.40;;;11.30;99.90;;;;;;5061815;28;20233;-81
2023/05/06 01:11:50;;;;;;;0.50;0.40;;;11.30;99.90;;;;;;5073159;28;20538;-81
2023/05/06 01:14:25;;;;;;;0.50;0.40;;;11.30;99.90;;;;;;5064965;28;20289;-81
2023/05/06 01:16:55;;;;;;;0.50;0.40;;;11.20;99.90;;;;;;5066502;28;20194;-81
2023/05/06 01:19:36;;;;;;;0.50;0.30;;;11.20;99.90;;;;;;5069784;28;20244;-81
2023/05/06 01:22:06;;;;;;;0.50;0.40;;;11.10;99.90;;;;;;5052817;28;20240;-80
2023/05/06 01:24:38;;;;;;;0.50;0.40;;;11.10;99.90;;;;;;5057752;28;20285;-81
2023/05/06 01:27:06;;;;;;;0.60;0.57;;;11.10;99.90;;;;;;5064819;28;20197;-80
2023/05/06 01:29:35;;;;;;;2.38;2.13;;;11.10;99.90;;;;;;5053041;28;20222;-77
2023/05/06 01:32:12;;;;;;;0.50;0.40;;;11.10;99.90;;;;;;5068213;28;20281;-79
2023/05/06 01:34:45;;;;;;;0.50;0.40;;;11.10;99.90;;;;;;5055019;28;20280;-80
2023/05/06 01:37:21;;;;;;;1.30;1.20;;;11.00;99.90;;;;;;5063417;28;20281;-82
2023/05/06 01:39:51;;;;;;;0.50;0.45;;;11.00;99.90;;;;;;5061005;28;20217;-81
2023/05/06 01:42:19;;;;;;;0.50;0.40;;;11.00;99.90;;;;;;5061234;28;20214;-80
2023/05/06 01:44:47;;;;;;;0.50;0.40;;;10.90;99.90;;;;;;5052946;28;20195;-81
2023/05/06 01:47:14;;;;;;;0.50;0.40;;;10.80;99.90;;;;;;5053889;28;20573;-80
2023/05/06 01:49:42;;;;;;;0.50;0.40;;;10.80;99.90;;;;;;5064385;28;20218;-79
2023/05/06 01:52:09;;;;;;;0.60;0.40;;;10.90;99.90;;;;;;5072118;28;20194;-79
2023/05/06 01:54:35;;;;;;;0.50;0.40;;;10.90;99.90;;;;;;5061575;28;20586;-81
2023/05/06 01:57:04;;;;;;;0.50;0.30;;;10.90;99.90;;;;;;5061608;28;20194;-80
2023/05/06 01:59:30;;;;;;;0.50;0.40;;;10.90;99.90;;;;;;5048695;28;20310;-81
2023/05/06 02:01:57;;;;;;;0.63;0.63;;;10.80;99.90;;;;;;5072204;28;20753;-82
2023/05/06 02:04:24;;;;;;;0.50;0.40;;;10.60;99.90;;;;;;5057789;28;20237;-81
2023/05/06 02:06:51;;;;;;;0.50;0.30;;;10.50;99.90;;;;;;5065057;28;20633;-81
2023/05/06 02:09:18;;;;;;;0.50;0.40;;;10.30;99.90;;;;;;5064858;28;20253;-81
2023/05/06 02:11:45;;;;;;;0.50;0.40;;;10.30;99.90;;;;;;5064772;28;20194;-81
2023/05/06 02:14:13;;;;;;;0.50;0.40;;;10.30;99.90;;;;;;5073370;28;20200;-81
2023/05/06 02:16:40;;;;;;;0.50;0.40;;;10.30;99.90;;;;;;5064949;28;20285;-82
2023/05/06 02:19:06;;;;;;;0.50;0.40;;;10.20;99.90;;;;;;5073256;28;20224;-79
2023/05/06 02:21:33;;;;;;;0.50;0.40;;;10.20;99.90;;;;;;5060083;28;20589;-81
2023/05/06 02:24:00;;;;;;;0.50;0.40;;;10.10;99.90;;;;;;5067727;28;20214;-81
2023/05/06 02:26:27;;;;;;;0.50;0.40;;;10.00;99.90;;;;;;5068075;28;20194;-81
2023/05/06 02:28:54;;;;;;;0.50;0.40;;;9.90;99.90;;;;;;5061148;28;20306;-81
2023/05/06 02:31:22;;;;;;;0.50;0.32;;;9.90;99.90;;;;;;5072559;28;20202;-81
2023/05/06 02:33:49;;;;;;;0.50;0.40;;;9.90;99.90;;;;;;5064560;28;20282;-81
2023/05/06 02:36:15;;;;;;;0.50;0.40;;;9.90;99.90;;;;;;5057126;28;20757;-81
2023/05/06 02:38:42;;;;;;;0.50;0.40;;;9.80;99.90;;;;;;5068063;28;20280;-81
2023/05/06 02:41:09;;;;;;;0.50;0.40;;;9.80;99.90;;;;;;5067167;28;20204;-81
2023/05/06 02:43:36;;;;;;;0.50;0.40;;;9.80;99.90;;;;;;5064323;28;20214;-79
2023/05/06 02:46:03;;;;;;;0.50;0.40;;;9.80;99.90;;;;;;5071897;28;20194;-81
2023/05/06 02:48:31;;;;;;;0.50;0.40;;;9.80;99.90;;;;;;5063812;28;20569;-81
2023/05/06 02:50:58;;;;;;;0.50;0.40;;;9.70;99.90;;;;;;5064141;28;20194;-80
2023/05/06 02:53:25;;;;;;;0.50;0.40;;;9.70;99.90;;;;;;5066691;28;20202;-79
2023/05/06 02:55:52;;;;;;;1.77;0.80;;;9.80;99.90;;;;;;5069701;28;20191;-80
2023/05/06 02:58:21;;;;;;;0.50;0.40;;;9.80;99.90;;;;;;5065418;28;20264;-79
2023/05/06 03:00:47;;;;;;;0.50;0.40;;;9.80;99.90;;;;;;5067084;28;20213;-81
2023/05/06 03:03:14;;;;;;;0.50;0.40;;;9.80;99.90;;;;;;5058753;28;20222;-82
2023/05/06 03:05:42;;;;;;;0.50;0.40;;;9.90;99.90;;;;;;5071231;28;20194;-81
2023/05/06 03:08:09;;;;;;;0.50;0.40;;;9.90;99.90;;;;;;5062882;28;20660;-78
2023/05/06 03:10:36;;;;;;;0.50;0.40;;;9.90;99.90;;;;;;5066595;28;20222;-76
2023/05/06 03:13:03;;;;;;;0.50;0.50;;;9.80;99.90;;;;;;5089172;28;20213;-84
2023/05/06 03:15:30;;;;;;;0.50;0.40;;;9.70;99.90;;;;;;5087546;28;20198;-84
2023/05/06 03:17:57;;;;;;;0.50;0.40;;;9.70;99.90;;;;;;5086601;28;20227;-84
2023/05/06 03:20:24;;;;;;;2.58;2.47;;;9.70;99.90;;;;;;5083533;28;20225;-81
2023/05/06 03:22:52;;;;;;;0.50;0.40;;;9.70;99.90;;;;;;5069834;28;20218;-81
2023/05/06 03:25:20;;;;;;;0.50;0.40;;;9.70;99.90;;;;;;5065700;28;20768;-80
2023/05/06 03:27:46;;;;;;;1.13;1.02;;;9.70;99.90;;;;;;5059846;28;20435;-77
2023/05/06 03:30:14;;;;;;;0.50;0.40;;;9.70;99.90;;;;;;5066913;28;20313;-81
2023/05/06 03:32:41;;;;;;;0.50;0.40;;;9.70;99.90;;;;;;5063192;28;20198;-80
2023/05/06 03:35:09;;;;;;;0.88;0.88;;;9.60;99.90;;;;;;5055651;28;20285;-80
2023/05/06 03:37:35;;;;;;;0.50;0.40;;;9.60;99.90;;;;;;5050573;28;20194;-81
2023/05/06 03:40:05;;;;;;;0.50;0.40;;;9.60;99.90;;;;;;5059258;28;20215;-81
2023/05/06 03:42:31;;;;;;;0.70;0.70;;;9.50;99.90;;;;;;5066358;28;20251;-81
2023/05/06 03:44:58;;;;;;;0.60;0.40;;;9.60;99.90;;;;;;5068207;28;20205;-82
2023/05/06 03:47:25;;;;;;;0.50;0.40;;;9.60;99.90;;;;;;5073762;28;20198;-81
2023/05/06 03:49:52;;;;;;;0.70;0.70;;;9.60;99.90;;;;;;5066750;28;20717;-81
2023/05/06 03:52:19;;;;;;;0.50;0.40;;;9.70;99.90;;;;;;5058184;28;20265;-82
2023/05/06 03:54:45;;;;;;;0.50;0.40;;;9.80;99.90;;;;;;5066308;28;20197;-82
2023/05/06 03:57:13;;;;;;;0.60;0.60;;;9.80;99.90;;;;;;5066061;28;20289;-80
2023/05/06 03:59:40;;;;;;;0.60;0.57;;;9.90;99.90;;;;;;5062591;28;20218;-80
2023/05/06 04:02:07;;;;;;;6.35;2.92;;;9.90;99.90;;;;;;5062920;28;20229;-82
2023/05/06 04:04:34;;;;;;;1.20;1.20;;;10.00;99.90;;;;;;5070599;28;20274;-81
2023/05/06 04:07:02;;;;;;;5.55;4.25;;;10.10;99.90;;;;;;5062491;28;20225;-82
2023/05/06 04:09:29;;;;;;;0.52;0.52;;;10.30;99.90;;;;;;5064982;28;20219;-80
2023/05/06 04:11:56;;;;;;;0.90;0.88;;;10.30;99.90;;;;;;5065691;28;20216;-82
2023/05/06 04:14:24;;;;;;;0.95;0.95;;;10.30;99.90;;;;;;5064185;28;20205;-82
2023/05/06 04:16:51;;;;;;;4.43;4.00;;;10.50;99.90;;;;;;5062302;28;20229;-82
2023/05/06 04:19:18;;;;;;;2.90;1.67;;;10.60;99.90;;;;;;5062710;28;20302;-83
2023/05/06 04:21:45;;;;;;;15.63;6.47;;;10.70;99.90;;;;;;5065158;28;20202;-81
2023/05/06 04:24:12;;;;;;;1.73;1.63;;;10.80;99.90;;;;;;5065759;28;20218;-81
2023/05/06 04:26:39;;;;;;;0.50;0.40;;;10.80;99.90;;;;;;5054328;28;20225;-82
2023/05/06 04:29:06;;;;;;;5.57;3.17;;;10.90;99.90;;;;;;5062300;28;20225;-81
2023/05/06 04:31:35;;;;;;;0.50;0.40;;;10.90;99.90;;;;;;5065012;28;20662;-82
2023/05/06 04:34:03;;;;;;;1.73;1.20;;;10.90;99.90;;;;;;5065328;28;20198;-80
2023/05/06 04:36:29;;;;;;;0.52;0.52;;;11.00;99.90;;;;;;5063271;28;20263;-82
2023/05/06 04:38:57;;;;;;;0.60;0.57;;;11.10;99.90;;;;;;5061961;28;20305;-82
2023/05/06 04:41:24;;;;;;;1.50;1.40;;;11.10;99.90;;;;;;5063174;28;20252;-82
2023/05/06 04:43:51;;;;;;;0.50;0.40;;;11.10;99.90;;;;;;5065428;28;20263;-82
2023/05/06 04:46:18;;;;;;;0.50;0.40;;;11.20;99.90;;;;;;5064643;28;20290;-82
2023/05/06 04:48:46;;;;;;;9.88;7.10;;;11.20;99.90;;;;;;5061947;28;20278;-81
2023/05/06 04:51:14;;;;;;;2.05;1.95;;;11.20;99.90;;;;;;5061929;28;20672;-82
2023/05/06 04:53:40;;;;;;;2.75;2.55;;;11.30;99.90;;;;;;5053976;28;20194;-77
2023/05/06 04:56:07;;;;;;;0.60;0.40;;;11.30;99.90;;;;;;5061838;28;20244;-81
2023/05/06 04:58:34;;;;;;;0.50;0.40;;;11.40;99.90;;;;;;5064260;28;20209;-82
2023/05/06 05:01:04;;;;;;;0.50;0.40;;;11.40;99.90;;;;;;5064653;28;20209;-81
2023/05/06 05:03:31;;;;;;;0.50;0.40;;;11.40;99.90;;;;;;5062801;28;20213;-81
2023/05/06 05:05:59;;;;;;;0.50;0.40;;;11.40;99.90;;;;;;5061805;28;20198;-82
2023/05/06 05:08:26;;;;;;;0.50;0.50;;;11.50;99.90;;;;;;5063002;28;20562;-81
2023/05/06 05:10:53;;;;;;;0.50;0.40;;;11.50;99.90;;;;;;5064832;28;20297;-82
2023/05/06 05:13:20;;;;;;;0.50;0.40;;;11.60;99.90;;;;;;5064187;28;20285;-82
2023/05/06 05:15:47;;;;;;;0.50;0.35;;;11.70;99.90;;;;;;5062003;28;20207;-81
2023/05/06 05:18:13;;;;;;;2.25;1.02;;;11.70;99.90;;;;;;5061539;28;20200;-82
2023/05/06 05:20:40;;;;;;;0.50;0.30;;;11.80;99.90;;;;;;5069257;28;20303;-82
2023/05/06 05:23:08;;;;;;;0.50;0.40;;;11.80;99.90;;;;;;5061578;28;20282;-83
2023/05/06 05:25:35;;;;;;;0.60;0.40;;;11.90;99.90;;;;;;5063821;28;20270;-83
2023/05/06 05:28:02;;;;;;;0.50;0.40;;;12.00;99.90;;;;;;5064085;28;20286;-83
2023/05/06 05:30:29;;;;;;;0.57;0.52;;;12.10;99.90;;;;;;5064546;28;20504;-81
2023/05/06 05:32:56;;;;;;;0.50;0.40;;;12.10;99.90;;;;;;5065312;28;20271;-82
2023/05/06 05:35:23;;;;;;;0.60;0.60;;;12.20;99.90;;;;;;5063702;28;20539;-82
2023/05/06 05:37:50;;;;;;;0.50;0.40;;;12.30;99.90;;;;;;5061351;28;20459;-81
2023/05/06 05:40:18;;;;;;;0.50;0.40;;;12.40;99.90;;;;;;5069271;28;20581;-82
2023/05/06 05:42:45;;;;;;;0.50;0.30;;;12.50;99.90;;;;;;5053624;28;20214;-81
2023/05/06 05:45:11;;;;;;;0.50;0.40;;;12.60;99.90;;;;;;5061343;28;20224;-83
2023/05/06 05:47:38;;;;;;;0.50;0.40;;;12.80;99.90;;;;;;5063737;28;20202;-83
2023/05/06 05:50:06;;;;;;;0.60;0.60;;;12.80;99.90;;;;;;5064261;28;20547;-83
2023/05/06 05:52:33;;;;;;;0.50;0.40;;;12.90;99.90;;;;;;5062694;28;20445;-80
2023/05/06 05:55:00;;;;;;;1.60;1.27;;;13.00;99.90;;;;;;5060852;28;20201;-82
2023/05/06 05:57:28;;;;;;;0.50;0.50;;;13.10;99.90;;;;;;5062467;28;20456;-83
2023/05/06 05:59:55;;;;;;;0.50;0.40;;;13.70;99.90;;;;;;5064127;28;20226;-84
2023/05/06 06:02:22;;;;;;;0.77;0.77;;;14.90;99.90;;;;;;5064487;28;20531;-83
2023/05/06 06:04:49;;;;;;;0.50;0.30;;;16.30;99.90;;;;;;5061275;28;20473;-81
2023/05/06 06:07:15;;;;;;;0.50;0.30;;;17.30;99.90;;;;;;5061350;28;20457;-83
2023/05/06 06:09:45;;;;;;;0.50;0.40;;;18.00;99.90;;;;;;5063976;28;20827;-82
2023/05/06 06:12:12;;;;;;;0.50;0.30;;;18.60;99.90;;;;;;5064721;28;20449;-85
2023/05/06 06:14:40;;;;;;;0.50;0.30;;;19.50;99.90;;;;;;5061804;28;20436;-83
2023/05/06 06:17:07;;;;;;;0.50;0.43;;;20.40;99.90;;;;;;5061145;28;20451;-83
2023/05/06 06:19:34;;;;;;;0.50;0.40;;;21.10;99.90;;;;;;5069090;28;20869;-83
2023/05/06 06:22:01;;;;;;;1.17;1.17;;;21.80;99.90;;;;;;5061045;28;20445;-83
2023/05/06 06:24:28;;;;;;;0.70;0.70;;;22.30;99.90;;;;;;5062577;28;20552;-83
2023/05/06 06:26:54;;;;;;;0.97;0.80;;;22.70;99.90;;;;;;5064737;28;20500;-84
2023/05/06 06:29:21;;;;;;;0.50;0.40;;;22.80;99.90;;;;;;5063892;28;20465;-81
2023/05/06 06:31:49;;;;;;;0.50;0.30;;;22.80;99.90;;;;;;5064187;28;20447;-82
2023/05/06 06:34:16;;;;;;;1.07;1.07;;;23.90;99.90;;;;;;5064600;28;20472;-82
2023/05/06 06:36:44;;;;;;;0.50;0.30;;;24.90;99.90;;;;;;5055930;28;20436;-83
2023/05/06 06:39:11;;;;;;;0.50;0.30;;;25.20;99.90;;;;;;5064464;28;21056;-81
2023/05/06 06:41:38;;;;;;;1.37;1.23;;;25.60;99.90;;;;;;5061968;28;20467;-83
2023/05/06 06:44:05;;;;;;;0.50;0.30;;;26.50;99.90;;;;;;5063457;28;20480;-82
2023/05/06 06:46:32;;;;;;;0.50;0.30;;;27.70;99.90;;;;;;5065719;28;20527;-83
2023/05/06 06:49:01;;;;;;;0.50;0.30;;;28.10;96.50;;;;;;5071106;28;20453;-83
2023/05/06 06:51:27;;;;;;;0.60;0.57;;;28.30;90.50;;;;;;5064237;28;20848;-82
2023/05/06 06:53:55;;;;;;;0.50;0.47;;;28.00;88.10;;;;;;5064516;28;20950;-82
2023/05/06 06:56:22;;;;;;;1.20;1.07;;;27.70;86.70;;;;;;5064524;28;20445;-82
2023/05/06 06:58:48;;;;;;;0.50;0.30;;;27.70;85.10;;;;;;5055909;28;20437;-82
2023/05/06 07:01:15;;;;;;;0.83;0.83;;;28.30;88.40;;;;;;5063847;28;20488;-83
2023/05/06 07:03:42;;;;;;;0.50;0.30;;;29.10;89.10;;;;;;5067004;28;20481;-79
2023/05/06 07:06:10;;;;;;;0.50;0.30;;;30.10;83.60;;;;;;5061482;28;20476;-81
2023/05/06 07:08:37;;;;;;;1.20;0.90;;;31.10;78.10;;;;;;5065610;28;20448;-83
2023/05/06 07:11:04;;;;;;;1.97;0.97;;;30.90;75.00;;;;;;5061085;28;20444;-79
2023/05/06 07:13:31;;;;;;;0.50;0.30;;;31.10;73.60;;;;;;5064180;28;20547;-78
2023/05/06 07:15:58;;;;;;;0.50;0.30;;;31.30;74.70;;;;;;5067089;28;20532;-80
2023/05/06 07:18:25;;;;;;;2.07;1.87;;;32.00;71.00;;;;;;5066709;28;20447;-76
2023/05/06 07:20:51;;;;;;;0.50;0.30;;;31.90;69.10;;;;;;5063731;28;20463;-81
2023/05/06 07:23:20;;;;;;;0.50;0.30;;;32.40;69.20;;;;;;5063411;28;20886;-81
2023/05/06 07:25:47;;;;;;;0.60;0.60;;;33.10;69.00;;;;;;5066590;28;20505;-80
2023/05/06 07:28:14;;;;;;;0.50;0.30;;;32.60;64.70;;;;;;5066025;28;20471;-81
2023/05/06 07:30:41;;;;;;;0.50;0.30;;;33.00;70.10;;;;;;5064635;28;20575;-80
2023/05/06 07:33:08;;;;;;;0.50;0.30;;;33.90;63.20;;;;;;5069646;28;20448;-82
2023/05/06 07:35:35;;;;;;;0.50;0.30;;;34.00;62.60;;;;;;5065355;28;20437;-79
2023/05/06 07:38:01;;;;;;;0.50;0.30;;;33.40;60.30;;;;;;5063070;28;20527;-80
2023/05/06 07:40:30;;;;;;;0.50;0.30;;;33.20;59.40;;;;;;5063313;28;20501;-83
2023/05/06 07:42:56;;;;;;;0.60;0.50;;;33.60;61.80;;;;;;5066605;28;20503;-81
2023/05/06 07:45:24;;;;;;;0.50;0.30;;;33.70;59.10;;;;;;5066548;28;20486;-80
2023/05/06 07:47:51;;;;;;;0.50;0.30;;;34.20;62.20;;;;;;5054867;28;20451;-80
2023/05/06 07:50:17;;;;;;;0.50;0.30;;;34.80;59.70;;;;;;5062443;28;20457;-81
2023/05/06 07:52:44;;;;;;;0.50;0.30;;;34.90;59.60;;;;;;5065285;28;20885;-79
2023/05/06 07:55:11;;;;;;;0.50;0.30;;;33.80;56.50;;;;;;5059123;28;20516;-83
2023/05/06 07:57:39;;;;;;;0.50;0.30;;;32.70;58.40;;;;;;5064308;28;20924;-82
2023/05/06 08:00:08;;;;;;;0.50;0.43;;;31.60;63.00;;;;;;5066409;28;20547;-82
2023/05/06 08:02:37;;;;;;;0.50;0.30;;;32.10;61.10;;;;;;5064825;28;20455;-84
2023/05/06 08:05:06;;;;;;;0.50;0.30;;;32.40;62.90;;;;;;5063307;28;20568;-81
2023/05/06 08:07:33;;;;;;;0.50;0.30;;;32.70;61.50;;;;;;5063621;28;20451;-81
2023/05/06 08:10:00;;;;;;;0.50;0.30;;;32.90;58.40;;;;;;5066201;28;20555;-82
2023/05/06 08:12:27;;;;;;;0.50;0.30;;;32.90;59.50;;;;;;5066093;28;20480;-81
2023/05/06 08:14:55;;;;;;;0.50;0.40;;;32.40;59.80;;;;;;5053988;28;20448;-80
2023/05/06 08:17:22;;;;;;;0.50;0.30;;;32.10;61.40;;;;;;5062214;28;20460;-80
2023/05/06 08:19:49;;;;;;;2.10;0.63;;;32.60;60.40;;;;;;5064718;28;20548;-77
2023/05/06 08:22:16;;;;;;;0.60;0.50;;;32.70;59.40;;;;;;5065369;28;20448;-81
2023/05/06 08:24:43;;;;;;;0.50;0.30;;;31.20;60.10;;;;;;5064232;28;20476;-83
2023/05/06 08:27:10;;;;;;;0.50;0.30;;;30.70;63.40;;;;;;5062478;28;20445;-79
2023/05/06 08:29:37;;;;;;;0.50;0.30;;;31.20;62.30;;;;;;5062985;28;20508;-77
2023/05/06 08:32:05;;;;;;;0.50;0.40;;;31.10;60.20;;;;;;5065574;28;20519;-81
2023/05/06 08:34:33;;;;;;;1.37;1.30;;;31.40;60.50;;;;;;5064941;28;21014;-81
2023/05/06 08:37:00;;;;;;;1.07;0.90;;;31.10;60.70;;;;;;5062490;28;20452;-82
2023/05/06 08:39:27;;;;;;;1.27;0.70;;;30.60;61.20;;;;;;5062587;28;20467;-83
2023/05/06 08:41:56;;;;;;;0.50;0.30;;;29.50;63.80;;;;;;5054098;28;20449;-81
2023/05/06 08:44:24;;;;;;;0.77;0.50;;;29.40;66.70;;;;;;5061907;28;20499;-81
2023/05/06 08:46:51;;;;;;;0.50;0.30;;;30.00;65.20;;;;;;5064799;28;20441;-81
2023/05/06 08:49:19;;;;;;;0.60;0.50;;;29.60;64.40;;;;;;5065797;28;20468;-82
2023/05/06 08:51:50;;;;;;;0.50;0.30;;;29.60;63.90;;;;;;5065403;28;20441;-82
2023/05/06 08:54:18;;;;;;;0.50;0.50;;;29.70;67.40;;;;;;5065643;28;20442;-80
2023/05/06 08:56:48;;;;;;;14.97;1.57;;;29.90;63.20;;;;;;5056955;28;20447;-82
2023/05/06 08:59:15;;;;;;;0.50;0.30;;;30.10;63.00;;;;;;5065412;28;20547;-82
2023/05/06 09:01:42;;;;;;;0.50;0.30;;;30.00;65.10;;;;;;5063162;28;20826;-80
2023/05/06 09:04:10;;;;;;;0.50;0.30;;;30.60;63.20;;;;;;5059300;28;20483;-82
2023/05/06 09:06:38;;;;;;;0.50;0.30;;;30.50;62.00;;;;;;5063942;28;20448;-82
2023/05/06 09:09:05;;;;;;;1.03;1.03;;;31.10;65.20;;;;;;5060955;28;20484;-82
2023/05/06 09:11:32;;;;;;;0.50;0.40;;;31.30;60.60;;;;;;5061932;28;20520;-80
2023/05/06 09:14:10;;;;;;;1.90;0.40;;;31.20;60.60;;;;;;5064978;28;20524;-82
2023/05/06 09:16:38;;;;;;;0.60;0.60;;;30.90;59.70;;;;;;5064089;28;20916;-82
2023/05/06 09:19:06;;;;;;;0.50;0.30;;;30.30;63.30;;;;;;5061776;28;20595;-80
2023/05/06 09:21:34;;;;;;;0.60;0.40;;;30.70;61.50;;;;;;5060756;28;20552;-83
2023/05/06 09:24:03;;;;;;;0.50;0.30;;;30.30;59.20;;;;;;5064154;28;20432;-80
2023/05/06 09:26:31;;;;;;;0.50;0.30;;;29.40;59.90;;;;;;5065323;28;20472;-79
2023/05/06 09:28:58;;;;;;;0.50;0.30;;;29.10;61.40;;;;;;5052004;28;20485;-81
2023/05/06 09:31:26;;;;;;;0.50;0.40;;;29.50;62.20;;;;;;5060300;28;20444;-77
2023/05/06 09:33:53;;;;;;;0.50;0.30;;;29.00;60.10;;;;;;5062709;28;20436;-80
2023/05/06 09:36:21;;;;;;;1.83;1.23;;;29.00;65.50;;;;;;5064785;28;20531;-82
2023/05/06 09:38:47;;;;;;;0.50;0.30;;;29.40;62.50;;;;;;5062021;28;20451;-80
2023/05/06 09:41:19;;;;;;;0.50;0.30;;;29.20;61.30;;;;;;5060412;28;20520;-83
2023/05/06 09:43:48;;;;;;;0.50;0.30;;;29.50;62.30;;;;;;5062757;28;20445;-79
2023/05/06 09:46:15;;;;;;;0.50;0.30;;;30.40;63.40;;;;;;5064746;28;20848;-82
2023/05/06 09:48:42;;;;;;;0.50;0.30;;;31.20;60.40;;;;;;5062957;28;20454;-82
2023/05/06 09:51:09;;;;;;;0.67;0.60;;;31.00;60.20;;;;;;5061716;28;20824;-82
2023/05/06 09:53:37;;;;;;;0.50;0.30;;;31.10;56.70;;;;;;5061908;28;20441;-81
2023/05/06 09:56:05;;;;;;;0.50;0.30;;;30.50;59.90;;;;;;5064539;28;20440;-82
2023/05/06 09:58:34;;;;;;;0.57;0.57;;;31.00;56.40;;;;;;5064834;28;20440;-81
2023/05/06 10:01:03;;;;;;;0.50;0.30;;;30.70;57.80;;;;;;5053261;28;20999;-82
2023/05/06 10:03:31;;;;;;;0.50;0.33;;;30.60;56.90;;;;;;5061841;28;20433;-81
2023/05/06 10:06:00;;;;;;;0.50;0.30;;;29.90;58.20;;;;;;5064435;28;20475;-82
2023/05/06 10:08:28;;;;;;;0.50;0.30;;;29.90;58.30;;;;;;5057260;28;20456;-82
2023/05/06 10:10:55;;;;;;;0.50;0.30;;;30.00;59.00;;;;;;5063044;28;20459;-79
2023/05/06 10:13:24;;;;;;;0.50;0.30;;;31.00;61.20;;;;;;5063534;28;20446;-82
2023/05/06 10:15:52;;;;;;;0.50;0.30;;;31.90;55.60;;;;;;5062163;28;20432;-82
2023/05/06 10:18:20;;;;;;;0.50;0.33;;;32.50;56.80;;;;;;5061323;28;20524;-82
2023/05/06 10:20:50;;;;;;;0.50;0.30;;;32.40;55.90;;;;;;5066967;28;20464;-82
2023/05/06 10:23:25;;;;;;;0.50;0.30;;;31.90;56.40;;;;;;5068502;28;20448;-82
2023/05/06 10:25:55;;;;;;;3.27;0.70;;;31.10;55.40;;;;;;5065282;28;20850;-80
2023/05/06 10:28:22;;;;;;;1.43;0.60;;;32.00;56.90;;;;;;5063431;28;20540;-81
2023/05/06 10:30:52;;;;;;;0.80;0.63;;;32.40;54.10;;;;;;5066573;28;20903;-82
2023/05/06 10:33:21;;;;;;;0.70;0.40;;;32.30;54.80;;;;;;5062020;28;20527;-82
2023/05/06 10:35:55;;;;;;;0.50;0.30;;;32.40;54.00;;;;;;5064876;28;20435;-78
2023/05/06 10:38:35;;;;;;;0.50;0.30;;;32.70;53.40;;;;;;5066525;28;20435;-80
2023/05/06 10:41:03;;;;;;;0.50;0.30;;;33.30;55.70;;;;;;5050780;28;20501;-80
2023/05/06 10:43:31;;;;;;;0.50;0.30;;;34.10;53.10;;;;;;5067936;28;20931;-82
2023/05/06 10:46:02;;;;;;;0.47;0.30;;;34.20;49.60;;;;;;5064595;28;20848;-82
2023/05/06 10:48:29;;;;;;;0.47;0.30;;;34.30;50.60;;;;;;5063995;28;20500;-82
2023/05/06 10:51:22;;;;;;;0.50;0.30;;;34.10;50.30;;;;;;5066873;28;20460;-82
2023/05/06 10:53:56;;;;;;;0.50;0.30;;;34.30;51.50;;;;;;5065871;28;20463;-82
2023/05/06 10:56:24;;;;;;;0.50;0.30;;;34.10;51.30;;;;;;5064293;28;20432;-82
2023/05/06 10:58:51;;;;;;;0.40;0.30;;;34.10;50.90;;;;;;5065854;28;20441;-82
2023/05/06 11:01:23;;;;;;;0.50;0.30;;;34.00;49.80;;;;;;5067562;28;20819;-82
2023/05/06 11:03:51;;;;;;;0.50;0.30;;;33.70;50.70;;;;;;5065516;28;20444;-82
2023/05/06 11:06:35;;;;;;;0.57;0.50;;;33.30;51.20;;;;;;5063935;28;21019;-80
2023/05/06 11:09:03;;;;;;;0.50;0.40;;;33.30;50.70;;;;;;5063909;28;20492;-80
2023/05/06 11:11:51;;;;;;;0.50;0.30;;;33.50;52.30;;;;;;5063551;28;20790;-81
2023/05/06 11:14:26;;;;;;;0.50;0.30;;;33.80;51.90;;;;;;5057832;28;20444;-81
2023/05/06 11:16:56;;;;;;;0.73;0.73;;;32.90;49.20;;;;;;5065674;28;20433;-82
2023/05/06 11:19:24;;;;;;;0.50;0.30;;;31.70;51.60;;;;;;5067205;28;20451;-84
2023/05/06 11:21:56;;;;;;;0.50;0.30;;;31.00;53.10;;;;;;5064953;28;20447;-82
2023/05/06 11:24:27;;;;;;;2.00;1.60;;;29.60;52.70;;;;;;5064052;28;20456;-82
2023/05/06 11:26:54;;;;;;;0.50;0.30;;;29.10;53.80;;;;;;5065757;28;20567;-82
2023/05/06 11:29:21;;;;;;;0.50;0.30;;;29.00;54.80;;;;;;5066746;28;20460;-80
2023/05/06 11:31:50;;;;;;;0.50;0.30;;;29.60;53.30;;;;;;5065605;28;20436;-82
2023/05/06 11:34:28;;;;;;;0.50;0.30;;;29.40;54.50;;;;;;5063832;28;20831;-81
2023/05/06 11:37:01;;;;;;;0.50;0.30;;;28.70;53.80;;;;;;5065323;28;20448;-81
2023/05/06 11:39:29;;;;;;;0.50;0.30;;;27.80;54.70;;;;;;5066891;28;20480;-81
2023/05/06 11:41:57;;;;;;;0.50;0.30;;;28.50;58.30;;;;;;5064538;28;20505;-80
2023/05/06 11:44:29;;;;;;;0.50;0.30;;;29.00;54.00;;;;;;5063533;28;20445;-81
2023/05/06 11:47:00;;;;;;;0.50;0.30;;;29.80;53.10;;;;;;5068526;28;20508;-80
2023/05/06 11:49:29;;;;;;;1.03;0.93;;;29.80;52.30;;;;;;5066913;28;20492;-82
2023/05/06 11:51:56;;;;;;;0.50;0.30;;;30.20;53.90;;;;;;5064295;28;20440;-82
2023/05/06 11:54:25;;;;;;;0.50;0.30;;;30.30;54.10;;;;;;5060952;28;20444;-81
2023/05/06 11:56:54;;;;;;;0.50;0.30;;;29.10;54.40;;;;;;5064044;28;20445;-82
2023/05/06 11:59:28;;;;;;;0.50;0.30;;;29.40;58.00;;;;;;5063215;28;20548;-82
2023/05/06 12:01:57;;;;;;;0.50;0.30;;;30.60;55.00;;;;;;5064642;28;20437;-81
2023/05/06 12:04:24;;;;;;;0.63;0.57;;;30.40;54.60;;;;;;5051510;22;20504;-81
2023/05/06 12:06:52;;;;;;;0.50;0.30;;;29.70;57.30;;;;;;5042571;28;20481;-82
2023/05/06 12:09:21;;;;;;;0.50;0.40;;;29.60;56.40;;;;;;5043660;28;20437;-80
2023/05/06 12:11:50;;;;;;;0.50;0.30;;;29.80;56.60;;;;;;5044260;28;20964;-81
2023/05/06 12:14:17;;;;;;;0.50;0.30;;;29.70;55.20;;;;;;5046466;28;21026;-81
2023/05/06 12:16:44;;;;;;;0.50;0.30;;;29.80;57.50;;;;;;5046152;28;20447;-82
2023/05/06 12:19:11;;;;;;;0.50;0.30;;;30.10;54.80;;;;;;5045137;28;20825;-82
2023/05/06 12:21:39;;;;;;;0.50;0.30;;;30.50;54.10;;;;;;5043265;28;20442;-81
2023/05/06 12:24:07;;;;;;;0.50;0.30;;;30.20;54.30;;;;;;5046514;28;20463;-82
2023/05/06 12:26:47;;;;;;;0.50;0.50;;;30.30;53.80;;;;;;5046545;28;20564;-78
2023/05/06 12:29:16;;;;;;;0.50;0.30;;;30.50;53.80;;;;;;5035912;28;20441;-82
2023/05/06 12:31:45;;;;;;;0.50;0.30;;;30.20;52.90;;;;;;5042565;28;20437;-80
2023/05/06 12:34:12;;;;;;;0.50;0.30;;;30.10;57.20;;;;;;5046307;28;20480;-82
2023/05/06 12:36:41;;;;;;;0.50;0.30;;;29.60;55.20;;;;;;5046369;28;20532;-81
2023/05/06 12:39:10;;;;;;;0.50;0.30;;;29.40;56.80;;;;;;5046497;28;20448;-82
2023/05/06 12:41:39;;;;;;;0.50;0.30;;;30.00;57.20;;;;;;5044983;28;20453;-80
2023/05/06 12:44:35;;;;;;;0.50;0.30;;;30.40;55.90;;;;;;5042370;28;20501;-82
2023/05/06 12:47:04;;;;;;;0.50;0.30;;;31.40;57.40;;;;;;5045550;28;20507;-82
2023/05/06 12:49:51;;;;;;;0.50;0.30;;;31.60;53.10;;;;;;5045792;28;20445;-82
2023/05/06 12:52:19;;;;;;;0.43;0.30;;;31.30;52.70;;;;;;5035656;28;20507;-82